Time;durP1;ratioP1;P1;durP2;ratioP2;P2;SDS_P1;SDS_P2;PMS_P1;PMS_P2;Temp;Humidity;BMP_temperature;BMP_pressure;BME280_temperature;BME280_humidity;BME280_pressure;Samples;Min_cycle;Max_cycle;Signal;HPM_P1;HPM_P2
2021/08/01 00:01:31;;;;;;;4.15;3.75;;;20.90;70.20;;;20.90;54.90;94368.84;5016075;28;20248;-84
2021/08/01 00:03:58;;;;;;;4.50;3.08;;;20.90;70.30;;;20.89;54.91;94371.78;5032322;28;20286;-84
2021/08/01 00:06:26;;;;;;;3.95;3.47;;;20.90;70.40;;;20.87;54.72;94360.59;5031715;28;20224;-84
2021/08/01 00:08:54;;;;;;;4.72;3.65;;;20.90;70.40;;;20.84;54.67;94371.81;5049050;28;20199;-85
2021/08/01 00:11:21;;;;;;;3.55;3.17;;;20.80;70.30;;;20.81;55.26;94369.66;5032762;28;20219;-85
2021/08/01 00:13:49;;;;;;;4.70;3.60;;;20.80;70.40;;;20.78;55.05;94382.47;5032454;28;20242;-85
2021/08/01 00:16:16;;;;;;;5.72;3.60;;;20.80;70.40;;;20.73;54.84;94381.69;5022812;28;20327;-85
2021/08/01 00:18:44;;;;;;;4.47;3.60;;;20.80;70.40;;;20.69;55.15;94384.06;5012668;28;20196;-84
2021/08/01 00:21:11;;;;;;;5.45;3.40;;;20.70;70.40;;;20.64;55.24;94381.38;5012693;28;20228;-84
2021/08/01 00:23:38;;;;;;;3.97;3.10;;;20.70;70.50;;;20.60;55.40;94375.81;5012547;28;20224;-84
2021/08/01 00:26:05;;;;;;;4.00;3.50;;;20.70;70.50;;;20.59;55.29;94365.41;5012839;28;20220;-84
2021/08/01 00:28:32;;;;;;;5.85;3.50;;;20.60;70.50;;;20.56;55.21;94368.63;5012515;28;20279;-84
2021/08/01 00:31:00;;;;;;;5.63;3.50;;;20.60;70.70;;;20.54;55.32;94363.53;5012405;28;20224;-84
2021/08/01 00:33:28;;;;;;;3.97;3.50;;;20.60;70.60;;;20.54;55.34;94368.06;5012244;28;20204;-84
2021/08/01 00:35:56;;;;;;;3.65;3.08;;;20.50;70.70;;;20.50;55.32;94367.81;4996206;28;20333;-84
2021/08/01 00:38:23;;;;;;;3.95;3.33;;;20.50;70.90;;;20.47;55.71;94363.81;5012400;28;20217;-85
2021/08/01 00:40:51;;;;;;;3.80;3.38;;;20.50;70.90;;;20.51;55.61;94369.41;5011823;28;20262;-84
2021/08/01 00:43:18;;;;;;;3.42;3.13;;;20.50;71.00;;;20.51;55.62;94376.59;4995960;28;20201;-84
2021/08/01 00:45:45;;;;;;;4.00;3.60;;;20.50;71.20;;;20.50;55.94;94378.47;5023881;28;20623;-84
2021/08/01 00:48:14;;;;;;;3.80;3.40;;;20.50;71.20;;;20.50;55.86;94394.44;5027789;28;20255;-84
2021/08/01 00:50:43;;;;;;;4.18;3.35;;;20.50;71.30;;;20.51;56.07;94397.91;5004678;28;20224;-84
2021/08/01 00:53:12;;;;;;;3.85;3.55;;;20.50;71.30;;;20.52;56.04;94396.84;5032012;28;20228;-84
2021/08/01 00:55:40;;;;;;;4.38;3.65;;;20.50;72.50;;;20.53;55.85;94387.78;4994748;28;20378;-85
2021/08/01 00:58:09;;;;;;;3.90;3.30;;;20.60;71.80;;;20.53;55.85;94382.47;4995533;28;20204;-84
2021/08/01 01:03:28;;;;;;;3.67;3.38;;;20.50;72.20;;;20.48;56.47;94359.28;4995745;28;20207;-84
2021/08/01 01:06:02;;;;;;;6.80;3.88;;;20.50;72.40;;;20.51;56.56;94355.28;5012355;28;20235;-84
2021/08/01 01:09:00;;;;;;;4.20;3.38;;;20.50;71.80;;;20.48;55.93;94343.28;5011825;28;20193;-84
2021/08/01 01:11:47;;;;;;;3.78;3.33;;;20.50;72.20;;;20.44;56.47;94336.91;5012410;28;20207;-84
2021/08/01 01:14:22;;;;;;;5.80;3.70;;;20.50;71.80;;;20.43;56.49;94325.47;5015118;28;20199;-84
2021/08/01 01:17:14;;;;;;;4.63;3.55;;;20.40;72.10;;;20.38;56.55;94316.69;5031453;28;20242;-85
2021/08/01 01:20:10;;;;;;;5.28;3.22;;;20.40;72.00;;;20.37;56.49;94321.19;5031471;28;20223;-85
2021/08/01 01:23:27;;;;;;;5.80;3.65;;;20.40;72.30;;;20.31;56.34;94315.09;5015081;28;20187;-84
2021/08/01 01:26:29;;;;;;;4.15;3.47;;;20.40;72.10;;;20.30;56.61;94294.06;5014636;28;20230;-84
2021/08/01 01:29:17;;;;;;;3.95;3.53;;;20.40;71.50;;;20.25;56.77;94283.41;5013265;28;20608;-83
2021/08/01 01:31:46;;;;;;;8.07;3.40;;;20.40;72.30;;;20.22;56.17;94271.41;5013675;28;20192;-84
2021/08/01 01:34:36;;;;;;;5.25;3.45;;;20.30;71.70;;;20.19;56.46;94274.63;5015058;28;20204;-85
2021/08/01 01:37:07;;;;;;;5.47;3.40;;;20.30;72.30;;;20.17;57.14;94276.75;5020740;28;20304;-84
2021/08/01 01:39:39;;;;;;;3.67;3.28;;;20.30;72.00;;;20.15;56.89;94284.19;5014471;28;20270;-84
2021/08/01 01:42:29;;;;;;;6.07;3.67;;;20.20;72.20;;;20.14;56.89;94290.59;5031618;28;20211;-84
2021/08/01 01:45:00;;;;;;;3.60;3.30;;;20.20;71.90;;;20.13;57.01;94281.03;5011406;28;20702;-84
2021/08/01 01:47:34;;;;;;;6.68;3.58;;;20.20;72.20;;;20.12;56.56;94271.44;5017794;28;20245;-85
2021/08/01 01:50:03;;;;;;;3.60;3.30;;;20.20;72.20;;;20.11;57.03;94269.84;5031669;28;20678;-84
2021/08/01 01:52:33;;;;;;;6.15;4.07;;;20.20;72.30;;;20.09;56.91;94270.13;5014619;28;20243;-84
2021/08/01 01:55:08;;;;;;;5.38;3.75;;;20.10;72.40;;;20.09;56.76;94272.78;5012568;28;20327;-84
2021/08/01 01:57:38;;;;;;;6.72;3.78;;;20.10;72.40;;;20.08;57.26;94268.50;5017418;28;20211;-84
2021/08/01 02:00:08;;;;;;;6.38;3.60;;;20.10;72.50;;;20.08;57.17;94265.84;5014970;28;20220;-84
2021/08/01 02:02:44;;;;;;;5.57;3.38;;;20.10;72.60;;;20.09;57.23;94270.13;5031517;28;20214;-85
2021/08/01 02:05:27;;;;;;;5.47;3.88;;;20.20;72.80;;;20.10;57.58;94268.25;5015788;28;20278;-85
2021/08/01 02:08:39;;;;;;;4.90;3.75;;;20.10;72.80;;;20.06;57.41;94265.31;5015735;28;20209;-84
2021/08/01 02:11:38;;;;;;;5.50;4.03;;;20.10;73.30;;;20.11;57.82;94264.50;5025932;28;20227;-85
2021/08/01 02:14:22;;;;;;;5.55;3.60;;;20.10;73.50;;;20.12;57.22;94264.25;5014588;28;20287;-85
2021/08/01 02:16:56;;;;;;;6.72;4.10;;;20.10;73.30;;;20.14;57.82;94271.94;5029291;28;20195;-85
2021/08/01 02:19:27;;;;;;;7.22;4.00;;;20.10;73.20;;;20.15;57.54;94277.03;5014799;28;20278;-84
2021/08/01 02:21:57;;;;;;;5.72;3.88;;;20.10;73.20;;;20.20;57.40;94280.75;5014146;28;20200;-84
2021/08/01 02:24:25;;;;;;;5.18;4.10;;;20.10;73.20;;;20.22;57.73;94267.97;5016672;28;20359;-83
2021/08/01 02:26:52;;;;;;;3.97;3.58;;;20.10;73.30;;;20.23;57.77;94251.72;5016135;28;20228;-84
2021/08/01 02:29:21;;;;;;;3.75;3.45;;;20.20;73.40;;;20.24;57.91;94231.22;5013049;28;20189;-83
2021/08/01 02:31:48;;;;;;;8.20;4.00;;;20.20;73.60;;;20.27;58.00;94212.81;5034075;28;20654;-83
2021/08/01 02:34:28;;;;;;;7.03;4.43;;;20.20;73.50;;;20.28;58.05;94176.34;5031287;28;20661;-83
2021/08/01 02:36:58;;;;;;;4.95;4.43;;;20.20;73.90;;;20.29;58.24;94132.69;4998186;28;20645;-84
2021/08/01 02:39:25;;;;;;;8.25;4.32;;;20.20;74.00;;;20.27;58.26;94090.31;4997798;28;20654;-84
2021/08/01 02:41:53;;;;;;;7.30;4.43;;;20.20;73.70;;;20.26;58.70;94066.63;5014129;28;20204;-83
2021/08/01 02:44:29;;;;;;;7.15;4.05;;;20.20;73.80;;;20.20;58.51;94097.03;4998275;28;20196;-83
2021/08/01 02:46:59;;;;;;;5.55;4.20;;;20.20;74.10;;;20.17;58.79;94100.25;5013724;28;20227;-83
2021/08/01 02:49:38;;;;;;;3.92;3.53;;;20.20;73.90;;;20.13;58.55;94103.44;4998402;28;20173;-83
2021/08/01 02:52:10;;;;;;;5.22;3.97;;;20.20;74.20;;;20.10;58.81;94104.00;5014294;28;20558;-83
2021/08/01 02:54:40;;;;;;;6.07;4.30;;;20.10;74.10;;;20.08;58.80;94103.47;5036838;28;20212;-83
2021/08/01 02:57:12;;;;;;;7.38;4.15;;;20.10;74.30;;;20.09;59.14;94096.25;5033644;28;20227;-83
2021/08/01 02:59:42;;;;;;;4.60;4.00;;;20.10;74.70;;;20.09;59.13;94109.56;5033391;28;20211;-83
2021/08/01 03:02:11;;;;;;;4.95;3.95;;;20.10;74.50;;;20.11;58.90;94121.53;5001390;28;20208;-83
2021/08/01 03:04:48;;;;;;;5.82;4.13;;;20.10;74.40;;;20.11;58.68;94139.38;5029127;28;20273;-83
2021/08/01 03:07:17;;;;;;;4.95;3.90;;;20.10;74.40;;;20.07;59.12;94135.69;5033220;28;20219;-83
2021/08/01 03:09:45;;;;;;;4.93;3.95;;;20.10;74.40;;;20.11;59.32;94147.38;5033291;28;20279;-83
2021/08/01 03:12:15;;;;;;;4.07;3.58;;;20.10;74.50;;;20.11;59.30;94150.03;5016756;28;20207;-83
2021/08/01 03:14:44;;;;;;;5.07;4.00;;;20.10;74.60;;;20.12;58.61;94154.28;5016556;28;20254;-83
2021/08/01 03:17:12;;;;;;;4.30;3.90;;;20.10;74.60;;;20.13;59.28;94158.56;5020728;28;20725;-83
2021/08/01 03:19:40;;;;;;;5.07;4.10;;;20.10;74.60;;;20.09;59.31;94162.81;5030999;28;20224;-83
2021/08/01 03:22:10;;;;;;;4.82;3.63;;;20.10;74.60;;;20.14;59.08;94184.09;5013193;28;20299;-83
2021/08/01 03:24:41;;;;;;;5.85;4.25;;;20.10;74.60;;;20.15;59.02;94191.81;5014601;28;20216;-83
2021/08/01 03:27:17;;;;;;;5.93;3.95;;;20.10;74.60;;;20.15;59.27;94197.16;5033154;28;20701;-83
2021/08/01 03:29:46;;;;;;;7.22;4.15;;;20.10;74.60;;;20.18;59.10;94205.66;5032663;28;20216;-83
2021/08/01 03:32:18;;;;;;;10.73;4.50;;;20.10;74.70;;;20.19;58.86;94224.03;5017137;28;20207;-82
2021/08/01 03:34:48;;;;;;;6.13;3.97;;;20.20;74.80;;;20.22;59.44;94241.34;5016443;28;20216;-83
2021/08/01 03:37:18;;;;;;;4.00;3.58;;;20.10;74.60;;;20.21;58.59;94245.06;5011761;28;20300;-83
2021/08/01 03:40:23;;;;;;;4.32;3.92;;;20.10;74.60;;;20.20;58.86;94264.75;5022170;28;20225;-81
2021/08/01 03:42:52;;;;;;;4.50;3.42;;;20.20;74.60;;;20.17;59.08;94270.66;4995426;28;20259;-83
2021/08/01 03:45:20;;;;;;;5.40;4.13;;;20.20;74.70;;;20.15;59.53;94271.72;5007081;28;20311;-82
2021/08/01 03:47:47;;;;;;;4.80;3.95;;;20.20;75.00;;;20.12;60.02;94250.13;5027819;28;20208;-82
2021/08/01 03:50:14;;;;;;;5.50;3.95;;;20.10;75.00;;;20.09;59.84;94232.03;5012743;28;20240;-82
2021/08/01 03:52:41;;;;;;;6.22;3.85;;;20.10;75.00;;;20.06;60.01;94176.69;5012605;28;20203;-82
2021/08/01 03:55:09;;;;;;;5.20;3.78;;;20.10;75.10;;;20.06;60.13;94113.56;5012395;28;20335;-82
2021/08/01 03:57:37;;;;;;;4.65;3.72;;;20.10;75.10;;;20.04;60.12;94168.94;4980264;28;20212;-82
2021/08/01 04:00:08;;;;;;;4.25;3.47;;;20.10;75.20;;;20.02;60.18;94186.25;4996359;28;20267;-82
2021/08/01 04:02:39;;;;;;;4.63;3.70;;;20.00;75.60;;;19.99;60.19;94151.13;4997026;28;20728;-82
2021/08/01 04:05:08;;;;;;;5.47;3.85;;;20.10;75.30;;;19.99;59.87;94163.63;5013637;28;20263;-82
2021/08/01 04:07:35;;;;;;;4.10;3.60;;;20.00;75.30;;;19.97;59.81;94171.09;5022946;28;20342;-82
2021/08/01 04:10:03;;;;;;;4.05;3.00;;;20.10;75.50;;;20.02;60.04;94208.34;5004692;28;20246;-82
2021/08/01 04:12:32;;;;;;;4.30;3.35;;;20.00;75.40;;;20.03;60.24;94214.47;5020632;28;20579;-82
2021/08/01 04:15:00;;;;;;;4.65;3.50;;;20.00;75.50;;;20.03;60.39;94209.16;5019775;28;20213;-81
2021/08/01 04:17:29;;;;;;;3.95;3.40;;;20.00;75.60;;;20.02;59.88;94194.22;5018303;28;20292;-82
2021/08/01 04:19:56;;;;;;;4.78;3.40;;;20.00;75.70;;;20.05;60.49;94165.22;5018460;28;20212;-81
2021/08/01 04:22:25;;;;;;;4.30;3.80;;;20.00;75.80;;;20.07;60.47;94133.81;5018484;28;20201;-81
2021/08/01 04:24:53;;;;;;;4.68;3.67;;;20.00;75.80;;;20.07;60.71;94069.91;5020337;28;20817;-82
2021/08/01 04:27:20;;;;;;;6.10;3.72;;;20.00;75.80;;;20.05;60.57;94013.47;5045242;28;20705;-83
2021/08/01 04:29:47;;;;;;;6.03;3.90;;;20.00;75.80;;;20.02;60.71;94018.56;5011675;28;20216;-83
2021/08/01 04:32:15;;;;;;;4.53;3.70;;;20.00;75.90;;;19.97;60.53;94036.16;5011693;28;20225;-83
2021/08/01 04:34:42;;;;;;;5.43;3.50;;;20.00;75.80;;;19.93;60.53;94031.63;4993645;28;20247;-82
2021/08/01 04:37:09;;;;;;;4.40;3.78;;;19.90;75.90;;;19.92;60.67;94041.50;5010355;28;20196;-83
2021/08/01 04:39:36;;;;;;;3.85;3.33;;;20.00;75.90;;;19.88;60.82;94024.47;5010098;28;20220;-83
2021/08/01 04:42:03;;;;;;;5.65;3.47;;;19.90;75.90;;;19.85;61.23;94011.72;4994003;28;20242;-83
2021/08/01 04:44:30;;;;;;;3.80;3.40;;;19.90;76.00;;;19.82;61.35;93986.44;5011863;28;20201;-83
2021/08/01 04:46:58;;;;;;;5.43;3.55;;;19.90;76.00;;;19.82;60.73;93977.63;4995370;28;20221;-83
2021/08/01 04:49:25;;;;;;;4.30;3.90;;;19.90;76.10;;;19.79;61.16;93978.19;4994931;28;20239;-83
2021/08/01 04:51:52;;;;;;;4.18;3.70;;;19.80;76.10;;;19.76;60.94;93971.56;5010946;28;20204;-83
2021/08/01 04:54:20;;;;;;;5.88;3.75;;;19.80;76.10;;;19.76;61.05;93965.41;5030856;28;20263;-84
2021/08/01 04:56:47;;;;;;;3.88;3.50;;;19.80;76.20;;;19.73;61.28;93971.28;5038959;28;20196;-84
2021/08/01 04:59:14;;;;;;;5.18;3.83;;;19.80;76.20;;;19.74;61.44;93968.34;5011319;28;20291;-84
2021/08/01 05:01:41;;;;;;;4.20;3.80;;;19.80;76.40;;;19.75;61.17;93966.47;5011803;28;20568;-85
2021/08/01 05:04:10;;;;;;;4.13;3.72;;;19.70;76.40;;;19.75;61.52;93961.97;5011755;28;20204;-84
2021/08/01 05:06:38;;;;;;;6.13;4.55;;;19.80;76.50;;;19.76;61.40;93962.75;5013235;28;20220;-83
2021/08/01 05:09:05;;;;;;;5.63;4.60;;;19.70;76.70;;;19.76;61.83;93944.13;5031779;28;20204;-84
2021/08/01 05:11:32;;;;;;;5.35;4.80;;;19.70;76.90;;;19.80;61.86;93938.00;5031588;28;20247;-84
2021/08/01 05:13:59;;;;;;;6.30;5.07;;;19.70;76.80;;;19.80;61.65;93938.00;5032557;28;20233;-84
2021/08/01 05:16:26;;;;;;;5.35;4.85;;;19.70;77.70;;;19.81;62.01;93928.94;5021251;28;20299;-83
2021/08/01 05:18:54;;;;;;;6.53;5.20;;;19.80;77.80;;;19.85;61.76;93937.22;5030387;28;20586;-83
2021/08/01 05:21:22;;;;;;;5.38;4.88;;;19.80;77.10;;;19.89;61.82;93927.59;5009504;28;20696;-84
2021/08/01 05:23:50;;;;;;;5.30;4.80;;;19.80;77.30;;;19.91;61.88;93924.66;5023260;28;20442;-83
2021/08/01 05:26:17;;;;;;;5.18;4.68;;;19.80;77.10;;;19.92;62.03;93908.44;5011120;28;20232;-83
2021/08/01 05:28:45;;;;;;;5.43;4.93;;;19.80;77.30;;;19.95;62.28;93909.75;5002358;28;20690;-83
2021/08/01 05:31:12;;;;;;;5.60;5.03;;;19.80;77.20;;;19.96;62.35;93904.13;5004255;28;20216;-84
2021/08/01 05:33:40;;;;;;;5.82;4.80;;;19.90;77.40;;;20.00;61.72;93899.06;5011981;28;20204;-84
2021/08/01 05:36:09;;;;;;;6.30;4.85;;;19.90;77.40;;;20.05;61.75;93874.28;5004498;28;20239;-84
2021/08/01 05:38:38;;;;;;;5.75;5.07;;;19.90;77.50;;;20.08;62.14;93879.03;4978897;28;20201;-84
2021/08/01 05:41:06;;;;;;;5.50;4.72;;;19.90;77.50;;;20.11;61.69;93884.59;4979336;28;20217;-83
2021/08/01 05:43:34;;;;;;;5.95;4.95;;;20.00;78.30;;;20.15;61.73;93890.16;4998383;28;20197;-84
2021/08/01 05:46:01;;;;;;;6.05;5.00;;;20.00;77.50;;;20.18;61.47;93883.50;5011731;28;20212;-85
2021/08/01 05:48:28;;;;;;;6.10;4.97;;;20.10;77.60;;;20.20;62.17;93908.78;5027592;28;20269;-83
2021/08/01 05:50:55;;;;;;;5.53;4.80;;;20.10;77.60;;;20.24;61.91;93896.50;5031149;28;20294;-84
2021/08/01 05:53:24;;;;;;;5.07;4.57;;;20.10;77.60;;;20.30;61.80;93907.94;5029918;28;20196;-85
2021/08/01 05:55:51;;;;;;;4.93;4.43;;;20.10;77.60;;;20.33;62.02;93901.25;5013257;28;20267;-85
2021/08/01 05:58:18;;;;;;;5.75;5.15;;;20.20;77.80;;;20.42;61.87;93929.66;5020439;28;20283;-84
2021/08/01 06:00:45;;;;;;;4.97;4.47;;;20.20;77.80;;;20.50;61.66;93938.16;5011373;28;20682;-85
2021/08/01 06:03:13;;;;;;;6.45;4.97;;;20.20;77.90;;;20.58;61.75;93954.31;4995517;28;20219;-84
2021/08/01 06:05:40;;;;;;;5.50;5.00;;;20.30;78.00;;;20.63;62.04;93948.94;4998336;28;20303;-83
2021/08/01 06:08:07;;;;;;;5.28;4.78;;;20.40;78.00;;;20.74;61.91;93957.69;5015529;28;20256;-85
2021/08/01 06:10:34;;;;;;;5.38;4.88;;;20.40;78.00;;;20.83;62.13;93944.56;4982712;28;20216;-83
2021/08/01 06:13:01;;;;;;;4.53;4.13;;;20.60;78.20;;;20.92;61.93;93932.22;5018767;28;20196;-85
2021/08/01 06:15:28;;;;;;;5.30;4.80;;;20.60;78.20;;;21.03;61.85;93929.44;4998998;28;20303;-85
2021/08/01 06:17:57;;;;;;;4.65;4.25;;;20.70;78.30;;;21.12;61.66;93925.09;5015194;28;20196;-86
2021/08/01 06:20:24;;;;;;;4.47;4.07;;;20.70;78.20;;;21.20;61.88;93942.34;5015126;28;20244;-85
2021/08/01 06:22:51;;;;;;;6.07;4.43;;;20.80;78.10;;;21.25;61.81;93961.75;5025663;28;20208;-85
2021/08/01 06:25:18;;;;;;;4.55;4.15;;;20.90;78.90;;;21.32;62.19;93949.97;5017564;28;20235;-85
2021/08/01 06:27:45;;;;;;;5.03;3.88;;;21.00;78.00;;;21.36;61.25;93946.44;5025440;28;20701;-86
2021/08/01 06:30:13;;;;;;;4.00;3.60;;;21.00;77.80;;;21.43;61.49;93946.91;5027746;28;20212;-85
2021/08/01 06:32:40;;;;;;;4.25;3.50;;;21.10;77.90;;;21.48;61.35;93951.38;5031613;28;20650;-87
2021/08/01 06:35:08;;;;;;;4.30;3.90;;;21.20;77.80;;;21.52;60.94;93935.59;5018247;28;20716;-85
2021/08/01 06:37:35;;;;;;;3.28;2.97;;;21.20;77.60;;;21.50;60.65;93935.88;5049178;28;20223;-84
2021/08/01 06:40:03;;;;;;;3.58;3.00;;;21.20;77.30;;;21.50;60.93;93946.56;5033772;28;20293;-86
2021/08/01 06:42:30;;;;;;;3.80;3.35;;;21.20;77.10;;;21.48;60.82;93953.25;5039853;28;20651;-85
2021/08/01 06:44:57;;;;;;;2.90;2.65;;;21.20;77.00;;;21.43;61.01;93965.56;5034497;28;20212;-86
2021/08/01 06:47:24;;;;;;;3.03;2.67;;;21.30;77.00;;;21.43;61.04;93981.59;5000086;28;20217;-87
2021/08/01 06:49:51;;;;;;;2.92;2.58;;;21.20;77.10;;;21.50;61.17;93964.44;5020516;28;20741;-86
2021/08/01 06:52:36;;;;;;;3.65;3.08;;;21.20;77.40;;;21.64;61.61;93962.72;5020633;28;20200;-85
2021/08/01 06:55:05;;;;;;;3.00;2.75;;;21.30;77.70;;;21.81;61.48;93958.78;5026285;28;20222;-86
2021/08/01 06:57:32;;;;;;;3.33;2.90;;;21.40;77.90;;;21.96;61.21;93952.44;5032097;28;20196;-86
2021/08/01 06:59:59;;;;;;;2.80;2.60;;;21.50;78.00;;;22.10;60.62;93953.31;5020594;28;20275;-87
2021/08/01 07:02:26;;;;;;;2.58;2.38;;;21.60;77.80;;;22.20;60.62;93960.41;5011673;28;20201;-85
2021/08/01 07:04:54;;;;;;;2.92;2.72;;;21.70;77.50;;;22.27;60.12;93960.84;5016848;28;20227;-87
2021/08/01 07:07:21;;;;;;;2.63;2.42;;;21.80;77.50;;;22.32;60.19;93943.94;4982465;28;20229;-86
2021/08/01 07:09:48;;;;;;;2.67;2.47;;;21.80;77.40;;;22.41;60.67;93950.25;5016256;28;20767;-86
2021/08/01 07:12:16;;;;;;;2.70;2.50;;;21.90;77.20;;;22.47;60.02;93958.97;5032285;28;20687;-90
2021/08/01 07:14:46;;;;;;;2.83;2.55;;;22.00;77.20;;;22.51;59.90;93951.97;5034280;28;20702;-87
2021/08/01 07:17:19;;;;;;;2.70;2.50;;;22.00;76.80;;;22.48;59.85;93939.19;5037375;28;20210;-88
2021/08/01 07:19:49;;;;;;;2.55;2.35;;;22.10;76.70;;;22.50;59.87;93947.72;5012852;28;20279;-86
2021/08/01 07:22:16;;;;;;;2.78;2.47;;;22.20;76.70;;;22.50;60.09;93958.41;5009447;28;20309;-88
2021/08/01 07:24:43;;;;;;;3.67;2.72;;;22.20;76.70;;;22.45;59.72;93956.59;5012208;28;20248;-85
2021/08/01 07:27:10;;;;;;;2.65;2.45;;;22.20;76.50;;;22.46;60.07;93966.22;5017439;28;20244;-87
2021/08/01 07:29:37;;;;;;;2.70;2.50;;;22.20;76.50;;;22.45;60.12;93966.47;5029586;28;20213;-90
2021/08/01 07:32:05;;;;;;;3.42;2.90;;;22.20;76.50;;;22.49;59.90;93964.81;4981735;28;20205;-89
2021/08/01 07:34:33;;;;;;;3.03;2.70;;;22.20;76.60;;;22.54;60.33;93962.06;5014546;28;20304;-90
2021/08/01 07:37:01;;;;;;;3.25;2.95;;;22.30;76.90;;;22.61;60.21;93957.16;5014288;28;20203;-90
2021/08/01 07:39:28;;;;;;;2.97;2.70;;;22.30;76.90;;;22.71;60.53;93956.19;5013463;28;20561;-90
2021/08/01 07:41:55;;;;;;;2.92;2.70;;;22.30;77.00;;;22.85;60.34;93967.75;5015890;28;20715;-88
2021/08/01 07:44:24;;;;;;;3.30;3.00;;;22.40;77.10;;;23.01;59.92;93965.59;4981855;28;20589;-88
2021/08/01 07:46:51;;;;;;;3.15;2.85;;;22.50;77.20;;;23.18;59.73;93967.75;5010506;28;20240;-88
2021/08/01 07:49:19;;;;;;;3.13;2.83;;;22.60;77.10;;;23.32;59.70;93975.78;5014379;28;20193;-88
2021/08/01 07:51:46;;;;;;;4.32;2.90;;;22.70;77.20;;;23.49;59.77;93977.09;4997542;28;20284;-88
2021/08/01 07:54:14;;;;;;;2.78;2.50;;;22.80;77.40;;;23.66;59.50;93973.84;4997534;28;20201;-87
2021/08/01 07:56:41;;;;;;;2.88;2.67;;;22.90;77.30;;;23.84;59.55;93966.81;5013658;28;20193;-87
2021/08/01 07:59:08;;;;;;;2.63;2.42;;;23.10;77.40;;;24.05;58.98;93977.13;5014116;28;20904;-88
2021/08/01 08:01:35;;;;;;;2.63;2.42;;;23.20;77.10;;;24.05;58.63;93963.72;4981282;28;20232;-88
2021/08/01 08:04:02;;;;;;;2.65;2.45;;;23.40;76.40;;;24.07;57.96;93965.00;4997133;28;20231;-88
2021/08/01 08:06:29;;;;;;;2.72;2.53;;;23.40;76.00;;;24.06;58.25;93952.72;4981404;28;20640;-88
2021/08/01 08:08:57;;;;;;;2.80;2.40;;;23.50;75.90;;;24.14;58.47;93957.38;4997741;28;20627;-89
2021/08/01 08:11:24;;;;;;;2.53;2.33;;;23.60;76.00;;;24.23;58.27;93960.13;4997556;28;20221;-89
2021/08/01 08:13:51;;;;;;;2.50;2.30;;;23.70;75.80;;;24.28;58.18;93949.28;5013603;28;20204;-88
2021/08/01 08:16:18;;;;;;;2.67;2.42;;;23.70;75.80;;;24.43;58.03;93956.19;4997478;28;20239;-89
2021/08/01 08:18:45;;;;;;;3.25;2.53;;;23.80;75.80;;;24.53;57.64;93962.41;4981067;28;20209;-88
2021/08/01 08:21:13;;;;;;;2.40;2.20;;;23.90;75.50;;;24.64;57.33;93961.06;4981333;28;20213;-88
2021/08/01 08:23:40;;;;;;;2.25;2.05;;;24.00;75.10;;;24.74;57.20;93973.47;4981105;28;20689;-88
2021/08/01 08:26:07;;;;;;;2.78;2.20;;;24.10;75.00;;;24.81;57.03;93971.16;4997235;28;20251;-88
2021/08/01 08:28:35;;;;;;;3.45;2.50;;;24.10;75.00;;;24.86;56.98;93980.97;4996304;28;20243;-87
2021/08/01 08:31:02;;;;;;;2.25;2.05;;;24.20;74.80;;;24.87;57.00;93980.66;5014675;28;20281;-88
2021/08/01 08:33:29;;;;;;;3.60;2.22;;;24.30;74.90;;;24.93;56.72;93986.72;4997029;28;20255;-87
2021/08/01 08:35:56;;;;;;;2.40;2.20;;;24.40;74.40;;;24.96;56.58;93978.03;4997119;28;20546;-88
2021/08/01 08:38:23;;;;;;;2.08;1.88;;;24.50;74.30;;;25.04;56.05;93979.22;4981217;28;20201;-87
2021/08/01 08:40:52;;;;;;;2.40;2.20;;;24.50;74.10;;;25.06;56.32;93974.31;4981399;28;20682;-88
2021/08/01 08:43:19;;;;;;;4.20;2.35;;;24.60;74.00;;;25.07;56.48;93973.22;4997129;28;20207;-90
2021/08/01 08:45:47;;;;;;;2.45;2.22;;;24.60;74.30;;;25.13;56.34;93966.63;4996677;28;20221;-88
2021/08/01 08:48:16;;;;;;;2.35;2.15;;;24.70;74.20;;;25.30;56.76;93968.59;4995963;28;20224;-88
2021/08/01 08:50:50;;;;;;;2.45;2.20;;;24.70;74.10;;;25.45;56.29;93966.66;4980689;28;20225;-87
2021/08/01 08:53:20;;;;;;;3.03;1.90;;;24.80;73.90;;;25.54;56.03;93962.13;5012901;28;20277;-86
2021/08/01 08:55:48;;;;;;;2.40;2.20;;;24.90;73.70;;;25.56;55.82;93954.53;4996590;28;20243;-85
2021/08/01 08:58:21;;;;;;;2.22;2.03;;;24.90;73.60;;;25.56;55.54;93960.72;4996346;28;20250;-87
2021/08/01 09:00:48;;;;;;;2.40;2.20;;;25.00;73.10;;;25.46;54.89;93957.50;4980482;28;20251;-85
2021/08/01 09:03:15;;;;;;;2.42;2.20;;;25.00;73.00;;;25.29;55.64;93966.25;4996878;28;20215;-85
2021/08/01 09:05:42;;;;;;;2.70;2.17;;;25.00;72.90;;;25.23;55.72;93977.09;4996247;28;20254;-87
2021/08/01 09:08:10;;;;;;;2.47;2.28;;;25.00;73.00;;;25.18;55.74;93977.25;4996291;28;20232;-86
2021/08/01 09:10:37;;;;;;;3.67;2.97;;;24.90;72.80;;;25.20;56.10;93964.28;4980716;28;20221;-87
2021/08/01 09:13:04;;;;;;;3.22;2.90;;;24.90;73.00;;;25.31;55.79;93970.19;4996720;28;20213;-86
2021/08/01 09:15:31;;;;;;;3.90;3.50;;;24.90;73.60;;;25.44;55.79;93979.28;4996494;28;20221;-87
2021/08/01 09:18:00;;;;;;;5.72;3.63;;;25.00;73.60;;;25.54;55.37;93979.00;5012422;28;20296;-86
2021/08/01 09:20:34;;;;;;;4.05;3.67;;;25.10;73.30;;;25.57;55.28;93974.91;5012498;28;20213;-86
2021/08/01 09:23:01;;;;;;;4.15;3.75;;;25.10;73.20;;;25.68;55.60;93981.63;5012190;28;20766;-86
2021/08/01 09:25:32;;;;;;;4.20;3.70;;;25.20;73.70;;;25.86;55.67;93984.34;5012537;28;20287;-86
2021/08/01 09:28:21;;;;;;;3.88;3.47;;;25.30;73.60;;;26.07;55.55;93973.84;4996240;28;20213;-87
2021/08/01 09:31:00;;;;;;;4.18;3.80;;;25.40;73.50;;;26.26;55.45;93980.84;4996190;28;20233;-87
2021/08/01 09:33:41;;;;;;;3.95;3.40;;;25.60;73.90;;;26.43;54.79;93977.38;4996257;28;20190;-88
2021/08/01 09:36:18;;;;;;;4.60;4.20;;;25.70;73.20;;;26.55;53.96;93971.34;4996557;28;20284;-87
2021/08/01 09:38:52;;;;;;;4.50;3.85;;;25.80;72.60;;;26.58;53.60;93978.81;4981563;28;20222;-87
2021/08/01 09:41:34;;;;;;;4.97;4.55;;;25.90;71.80;;;26.46;52.99;93990.97;5000874;28;20246;-87
2021/08/01 09:44:05;;;;;;;4.32;3.92;;;26.00;71.40;;;26.32;52.93;93999.19;5000004;28;20193;-87
2021/08/01 09:46:43;;;;;;;5.25;4.75;;;25.90;70.90;;;26.10;52.72;93989.34;4983680;28;20758;-87
2021/08/01 09:49:11;;;;;;;4.72;4.32;;;25.90;70.40;;;25.87;53.47;94000.16;4983903;28;20233;-87
2021/08/01 09:51:40;;;;;;;5.32;4.45;;;25.80;70.50;;;25.69;53.54;93995.81;4983915;28;20205;-86
2021/08/01 09:54:10;;;;;;;5.18;4.68;;;25.70;70.30;;;25.59;53.80;94001.47;5016602;28;20643;-87
2021/08/01 09:56:38;;;;;;;5.80;4.78;;;25.60;70.30;;;25.45;53.49;93997.00;5000113;28;20199;-87
2021/08/01 09:59:19;;;;;;;5.38;4.75;;;25.50;70.40;;;25.24;53.45;94007.41;4999249;28;20312;-87
2021/08/01 10:01:57;;;;;;;5.97;4.72;;;25.40;70.20;;;25.08;53.92;94009.69;5016023;28;20192;-87
2021/08/01 10:04:40;;;;;;;7.38;4.78;;;25.20;70.40;;;24.91;53.34;94000.44;5016161;28;20185;-85
2021/08/01 10:07:13;;;;;;;6.55;4.90;;;25.10;70.30;;;24.78;53.80;94001.28;5001120;28;20285;-86
2021/08/01 10:09:45;;;;;;;6.93;5.18;;;24.90;70.30;;;24.61;53.46;93996.53;4998798;28;20216;-84
2021/08/01 10:12:14;;;;;;;6.75;5.40;;;24.80;70.20;;;24.52;54.03;94004.50;4999415;28;20235;-86
2021/08/01 10:14:44;;;;;;;4.85;4.35;;;24.60;70.80;;;24.50;54.84;93987.94;4983225;28;20221;-85
2021/08/01 10:17:11;;;;;;;5.20;4.70;;;24.50;71.00;;;24.56;54.81;93991.28;5015025;28;20182;-85
2021/08/01 10:19:38;;;;;;;5.90;5.30;;;24.50;71.40;;;24.59;54.02;93999.50;5003837;28;20230;-86
2021/08/01 10:22:06;;;;;;;5.38;4.88;;;24.50;71.00;;;24.54;53.81;93988.91;5022748;28;20189;-84
2021/08/01 10:24:46;;;;;;;5.82;5.22;;;24.40;70.70;;;24.33;53.78;93983.22;4998883;28;20630;-85
2021/08/01 10:27:16;;;;;;;6.57;4.88;;;24.30;71.40;;;24.18;53.93;93975.50;4982939;28;20298;-84
2021/08/01 10:29:47;;;;;;;6.78;5.50;;;24.20;70.50;;;24.10;54.14;93977.78;4994747;28;20319;-86
2021/08/01 10:32:18;;;;;;;6.20;5.60;;;24.20;70.90;;;23.93;54.33;93969.59;5019854;28;20670;-85
2021/08/01 10:35:07;;;;;;;5.68;4.88;;;24.00;70.50;;;23.82;54.30;93972.44;4994940;28;20283;-85
2021/08/01 10:37:43;;;;;;;7.00;6.10;;;23.90;70.40;;;23.78;54.35;93995.56;4998909;28;20244;-85